Time;durP1;ratioP1;P1;durP2;ratioP2;P2;SDS_P1;SDS_P2;PMS_P1;PMS_P2;Temp;Humidity;BMP_temperature;BMP_pressure;BME280_temperature;BME280_humidity;BME280_pressure;Samples;Min_cycle;Max_cycle;Signal;HPM_P1;HPM_P2
2021/06/13 00:00:25;;;;;;;0.50;0.40;;;13.50;99.90;;;;;;5016605;28;20202;-79
2021/06/13 00:02:51;;;;;;;0.50;0.40;;;13.50;99.90;;;;;;5016816;28;20200;-80
2021/06/13 00:05:18;;;;;;;0.50;0.40;;;13.40;99.90;;;;;;5017115;28;20593;-79
2021/06/13 00:07:45;;;;;;;0.50;0.40;;;13.40;99.90;;;;;;5016189;28;20207;-80
2021/06/13 00:10:14;;;;;;;0.50;0.40;;;13.30;99.90;;;;;;5016745;28;20199;-80
2021/06/13 00:12:40;;;;;;;0.50;0.40;;;13.30;99.90;;;;;;5016577;28;20213;-78
2021/06/13 00:15:10;;;;;;;0.50;0.40;;;13.20;99.90;;;;;;5019292;28;20223;-79
2021/06/13 00:17:37;;;;;;;0.50;0.40;;;13.20;99.90;;;;;;5016584;28;20215;-81
2021/06/13 00:20:06;;;;;;;0.50;0.40;;;13.20;99.90;;;;;;5016602;28;20206;-79
2021/06/13 00:22:32;;;;;;;0.50;0.40;;;13.10;99.90;;;;;;5017455;28;20207;-79
2021/06/13 00:24:59;;;;;;;0.50;0.40;;;13.10;99.90;;;;;;5017480;28;20721;-80
2021/06/13 00:27:25;;;;;;;0.50;0.40;;;13.00;99.90;;;;;;5015859;28;20192;-81
2021/06/13 00:29:51;;;;;;;0.50;0.40;;;12.90;99.90;;;;;;5016030;28;20203;-79
2021/06/13 00:32:18;;;;;;;0.50;0.40;;;12.90;99.90;;;;;;5017514;28;20192;-80
2021/06/13 00:34:45;;;;;;;0.50;0.40;;;12.90;99.90;;;;;;5017128;28;20216;-81
2021/06/13 00:37:11;;;;;;;0.50;0.40;;;12.90;99.90;;;;;;5016210;28;20212;-80
2021/06/13 00:39:37;;;;;;;0.50;0.40;;;12.90;99.90;;;;;;5016601;28;20242;-79
2021/06/13 00:42:04;;;;;;;0.50;0.40;;;12.90;99.90;;;;;;5017174;28;20200;-80
2021/06/13 00:44:30;;;;;;;0.50;0.40;;;12.80;99.90;;;;;;5019001;28;20244;-80
2021/06/13 00:46:57;;;;;;;0.50;0.40;;;12.80;99.90;;;;;;5015782;28;20188;-78
2021/06/13 00:49:24;;;;;;;0.50;0.40;;;12.80;99.90;;;;;;5015065;28;20196;-81
2021/06/13 00:51:52;;;;;;;0.50;0.40;;;12.80;99.90;;;;;;5016097;28;20199;-80
2021/06/13 00:54:18;;;;;;;0.50;0.40;;;12.80;99.90;;;;;;5019684;28;20216;-82
2021/06/13 00:56:45;;;;;;;0.50;0.40;;;12.70;99.90;;;;;;5018745;28;20674;-81
2021/06/13 00:59:11;;;;;;;0.50;0.40;;;12.70;99.90;;;;;;5020125;28;20200;-81
2021/06/13 01:01:37;;;;;;;0.50;0.40;;;12.60;99.90;;;;;;5019162;28;20625;-79
2021/06/13 01:04:04;;;;;;;0.70;0.70;;;12.70;99.90;;;;;;5020724;28;20220;-79
2021/06/13 01:06:43;;;;;;;0.50;0.40;;;12.70;99.90;;;;;;5020064;28;20196;-78
2021/06/13 01:09:15;;;;;;;0.50;0.40;;;12.70;99.90;;;;;;5020382;28;20200;-81
2021/06/13 01:11:50;;;;;;;0.50;0.40;;;12.60;99.90;;;;;;5019949;28;20206;-81
2021/06/13 01:14:23;;;;;;;0.50;0.40;;;12.60;99.90;;;;;;5023568;28;20273;-81
2021/06/13 01:16:59;;;;;;;0.50;0.40;;;12.60;99.90;;;;;;5019271;28;20206;-80
2021/06/13 01:19:38;;;;;;;0.50;0.40;;;12.60;99.90;;;;;;5019890;28;20179;-82
2021/06/13 01:22:28;;;;;;;0.50;0.40;;;12.50;99.90;;;;;;5020909;28;20194;-81
2021/06/13 01:25:04;;;;;;;0.50;0.40;;;12.50;99.90;;;;;;5019906;28;20212;-81
2021/06/13 01:28:04;;;;;;;0.50;0.40;;;12.40;99.90;;;;;;5019986;28;20254;-80
2021/06/13 01:30:35;;;;;;;0.50;0.40;;;12.40;99.90;;;;;;5020625;28;20187;-82
2021/06/13 01:33:06;;;;;;;0.50;0.40;;;12.40;99.90;;;;;;5021740;28;20585;-81
2021/06/13 01:35:33;;;;;;;0.50;0.40;;;12.30;99.90;;;;;;5021611;28;20234;-80
2021/06/13 01:38:00;;;;;;;0.50;0.40;;;12.30;99.90;;;;;;5019764;28;20224;-80
2021/06/13 01:40:31;;;;;;;0.50;0.40;;;12.30;99.90;;;;;;5019449;28;20196;-80
2021/06/13 01:42:58;;;;;;;0.50;0.40;;;12.30;99.90;;;;;;5015904;28;20206;-80
2021/06/13 01:45:29;;;;;;;0.50;0.40;;;12.30;99.90;;;;;;5019563;28;20227;-81
2021/06/13 01:47:56;;;;;;;0.50;0.40;;;12.30;99.90;;;;;;5017174;28;20188;-81
2021/06/13 01:50:25;;;;;;;0.50;0.40;;;12.30;99.90;;;;;;5017790;28;20196;-81
2021/06/13 01:52:52;;;;;;;0.50;0.40;;;12.20;99.90;;;;;;5018637;28;20196;-81
2021/06/13 01:55:20;;;;;;;0.50;0.40;;;12.20;99.90;;;;;;5020200;28;20689;-79
2021/06/13 01:57:47;;;;;;;0.50;0.40;;;12.10;99.90;;;;;;5018074;28;20219;-81
2021/06/13 02:00:15;;;;;;;0.50;0.40;;;12.10;99.90;;;;;;5018718;28;20199;-80
2021/06/13 02:02:44;;;;;;;0.50;0.40;;;12.10;99.90;;;;;;5020699;28;20204;-78
2021/06/13 02:05:14;;;;;;;0.50;0.40;;;12.10;99.90;;;;;;5019256;28;20216;-82
2021/06/13 02:07:42;;;;;;;0.50;0.40;;;12.10;99.90;;;;;;5020706;28;20206;-83
2021/06/13 02:10:11;;;;;;;0.50;0.40;;;12.00;99.90;;;;;;5017835;28;20684;-81
2021/06/13 02:12:41;;;;;;;0.50;0.40;;;12.00;99.90;;;;;;5018939;28;20210;-80
2021/06/13 02:15:09;;;;;;;0.50;0.40;;;11.90;99.90;;;;;;5021008;28;20700;-80
2021/06/13 02:17:36;;;;;;;0.50;0.40;;;11.90;99.90;;;;;;5018044;28;20210;-80
2021/06/13 02:20:04;;;;;;;0.50;0.40;;;11.90;99.90;;;;;;5017869;28;20199;-81
2021/06/13 02:22:33;;;;;;;0.50;0.40;;;11.90;99.90;;;;;;5018522;28;20200;-80
2021/06/13 02:24:59;;;;;;;0.50;0.40;;;11.90;99.90;;;;;;5022075;28;20216;-81
2021/06/13 02:27:28;;;;;;;0.50;0.40;;;11.90;99.90;;;;;;5021438;28;20207;-81
2021/06/13 02:29:54;;;;;;;0.50;0.40;;;11.90;99.90;;;;;;5021186;28;20199;-79
2021/06/13 02:32:21;;;;;;;0.50;0.40;;;11.90;99.90;;;;;;5020214;28;20215;-80
2021/06/13 02:34:49;;;;;;;0.50;0.40;;;11.80;99.90;;;;;;5019426;28;20227;-79
2021/06/13 02:37:17;;;;;;;0.50;0.40;;;11.80;99.90;;;;;;5019251;28;20219;-80
2021/06/13 02:39:45;;;;;;;0.50;0.40;;;11.80;99.90;;;;;;5018534;28;20206;-79
2021/06/13 02:42:12;;;;;;;0.50;0.40;;;11.80;99.90;;;;;;5020163;28;20565;-80
2021/06/13 02:44:38;;;;;;;0.50;0.40;;;11.80;99.90;;;;;;5022038;28;20221;-79
2021/06/13 02:47:05;;;;;;;0.50;0.40;;;11.70;99.90;;;;;;5019028;28;20581;-80
2021/06/13 02:49:31;;;;;;;0.50;0.40;;;11.70;99.90;;;;;;5019500;28;20202;-79
2021/06/13 02:52:07;;;;;;;0.50;0.40;;;11.70;99.90;;;;;;5019365;28;20690;-81
2021/06/13 02:54:36;;;;;;;0.50;0.40;;;11.60;99.90;;;;;;5019160;28;20218;-81
2021/06/13 02:57:07;;;;;;;0.50;0.40;;;11.60;99.90;;;;;;5020502;28;20261;-80
2021/06/13 02:59:39;;;;;;;0.50;0.40;;;11.60;99.90;;;;;;5022851;28;20191;-80
2021/06/13 03:02:09;;;;;;;0.50;0.40;;;11.60;99.90;;;;;;5023422;28;20199;-78
2021/06/13 03:04:36;;;;;;;0.50;0.40;;;11.60;99.90;;;;;;5023071;28;20210;-78
2021/06/13 03:07:04;;;;;;;0.50;0.40;;;11.60;99.90;;;;;;5021703;28;20203;-80
2021/06/13 03:09:32;;;;;;;0.50;0.40;;;11.60;99.90;;;;;;5022792;28;20293;-80
2021/06/13 03:11:59;;;;;;;0.50;0.40;;;11.60;99.90;;;;;;5021661;28;20578;-80
2021/06/13 03:14:29;;;;;;;0.50;0.40;;;11.60;99.90;;;;;;5024942;28;20208;-79
2021/06/13 03:16:57;;;;;;;0.50;0.40;;;11.60;99.90;;;;;;5021201;28;20736;-80
2021/06/13 03:19:25;;;;;;;0.70;0.70;;;11.60;99.90;;;;;;5022697;28;20616;-80
2021/06/13 03:21:51;;;;;;;0.50;0.40;;;11.50;99.90;;;;;;5021090;28;20229;-80
2021/06/13 03:24:20;;;;;;;0.50;0.40;;;11.50;99.90;;;;;;5022389;28;20218;-79
2021/06/13 03:26:47;;;;;;;0.50;0.40;;;11.50;99.90;;;;;;5021838;28;20206;-79
2021/06/13 03:29:14;;;;;;;0.50;0.40;;;11.50;99.90;;;;;;5021946;28;20198;-81
2021/06/13 03:31:42;;;;;;;0.50;0.40;;;11.50;99.90;;;;;;5021801;28;20210;-78
2021/06/13 03:34:10;;;;;;;0.50;0.40;;;11.50;99.90;;;;;;5021776;28;20218;-79
2021/06/13 03:36:38;;;;;;;0.50;0.40;;;11.50;99.90;;;;;;5021318;28;20194;-80
2021/06/13 03:39:05;;;;;;;0.50;0.40;;;11.50;99.90;;;;;;5020935;28;20303;-79
2021/06/13 03:41:32;;;;;;;0.50;0.40;;;11.50;99.90;;;;;;5021446;28;20198;-78
2021/06/13 03:44:00;;;;;;;0.50;0.40;;;11.40;99.90;;;;;;5023660;28;20229;-79
2021/06/13 03:46:27;;;;;;;0.50;0.40;;;11.40;99.90;;;;;;5020312;28;20201;-79
2021/06/13 03:48:56;;;;;;;0.50;0.40;;;11.30;99.90;;;;;;5021215;28;20196;-78
2021/06/13 03:51:25;;;;;;;1.58;1.48;;;11.30;99.90;;;;;;5021510;28;20203;-80
2021/06/13 03:53:55;;;;;;;0.50;0.40;;;11.30;99.90;;;;;;5020744;28;20219;-79
2021/06/13 03:56:24;;;;;;;0.50;0.40;;;11.30;99.90;;;;;;5021051;28;20572;-79
2021/06/13 03:58:52;;;;;;;0.50;0.40;;;11.40;99.90;;;;;;5021716;28;20218;-79
2021/06/13 04:01:21;;;;;;;0.50;0.40;;;11.40;99.90;;;;;;5020982;28;20202;-78
2021/06/13 04:03:50;;;;;;;0.50;0.40;;;11.40;99.90;;;;;;5021479;28;20220;-81
2021/06/13 04:06:20;;;;;;;0.50;0.40;;;11.40;99.90;;;;;;5021221;28;20203;-79
2021/06/13 04:08:48;;;;;;;0.50;0.40;;;11.40;99.90;;;;;;5020640;28;20255;-80
2021/06/13 04:11:16;;;;;;;0.50;0.40;;;11.50;99.90;;;;;;5021251;28;20205;-79
2021/06/13 04:13:43;;;;;;;0.50;0.40;;;11.40;99.90;;;;;;5021259;28;20199;-80
2021/06/13 04:16:11;;;;;;;0.50;0.40;;;11.50;99.90;;;;;;5031262;28;20203;-78
2021/06/13 04:18:38;;;;;;;0.50;0.40;;;11.50;99.90;;;;;;5020423;28;20223;-79
2021/06/13 04:21:06;;;;;;;0.50;0.40;;;11.60;99.90;;;;;;5020994;28;20677;-80
2021/06/13 04:23:34;;;;;;;0.50;0.40;;;11.60;99.90;;;;;;5021551;28;20192;-78
2021/06/13 04:26:02;;;;;;;0.50;0.40;;;11.60;99.90;;;;;;5020973;28;20853;-79
2021/06/13 04:28:29;;;;;;;0.50;0.40;;;11.70;99.90;;;;;;5020619;28;20191;-79
2021/06/13 04:31:12;;;;;;;0.50;0.40;;;11.70;99.90;;;;;;5019490;28;20223;-79
2021/06/13 04:33:40;;;;;;;0.50;0.40;;;11.80;99.90;;;;;;5021048;28;20203;-81
2021/06/13 04:36:08;;;;;;;0.50;0.40;;;11.80;99.90;;;;;;5021426;28;20198;-80
2021/06/13 04:38:36;;;;;;;0.50;0.40;;;11.90;99.90;;;;;;5020540;28;20211;-79
2021/06/13 04:41:05;;;;;;;0.50;0.40;;;11.90;99.90;;;;;;5021703;28;20214;-81
2021/06/13 04:43:33;;;;;;;0.50;0.40;;;12.00;99.90;;;;;;5019931;28;20211;-78
2021/06/13 04:45:59;;;;;;;0.50;0.40;;;12.00;99.90;;;;;;5023279;28;20209;-78
2021/06/13 04:48:26;;;;;;;0.50;0.40;;;12.00;99.90;;;;;;5020736;28;20184;-80
2021/06/13 04:50:54;;;;;;;0.50;0.40;;;12.10;99.90;;;;;;5021855;28;20222;-79
2021/06/13 04:53:51;;;;;;;0.50;0.40;;;12.10;99.90;;;;;;5023107;28;20204;-81
2021/06/13 04:56:27;;;;;;;0.50;0.40;;;12.20;99.90;;;;;;5022724;28;20589;-80
2021/06/13 04:58:54;;;;;;;0.50;0.40;;;12.20;99.90;;;;;;5022511;28;20224;-80
2021/06/13 05:01:21;;;;;;;0.50;0.40;;;12.30;99.90;;;;;;5022324;28;20206;-81
2021/06/13 05:03:47;;;;;;;0.50;0.40;;;12.20;99.90;;;;;;5022547;28;20196;-80
2021/06/13 05:06:14;;;;;;;0.50;0.40;;;12.30;99.90;;;;;;5023993;28;20191;-81
2021/06/13 05:08:43;;;;;;;0.50;0.40;;;12.30;99.90;;;;;;5022809;28;20192;-81
2021/06/13 05:11:10;;;;;;;0.50;0.40;;;12.50;99.90;;;;;;5023686;28;20728;-80
2021/06/13 05:13:37;;;;;;;0.50;0.40;;;12.50;99.90;;;;;;5023582;28;20196;-81
2021/06/13 05:16:05;;;;;;;0.50;0.40;;;12.60;99.90;;;;;;5026893;28;20191;-82
2021/06/13 05:18:33;;;;;;;0.50;0.40;;;12.70;99.90;;;;;;5023155;28;20215;-81
2021/06/13 05:20:59;;;;;;;0.50;0.40;;;12.80;99.90;;;;;;5023095;28;20680;-81
2021/06/13 05:23:26;;;;;;;0.50;0.40;;;12.90;99.90;;;;;;5024120;28;20204;-80
2021/06/13 05:25:56;;;;;;;0.50;0.40;;;12.90;99.90;;;;;;5023030;28;20222;-81
2021/06/13 05:28:24;;;;;;;0.50;0.40;;;13.00;99.90;;;;;;5023582;28;20527;-80
2021/06/13 05:30:51;;;;;;;0.50;0.40;;;13.20;99.90;;;;;;5023667;28;20693;-80
2021/06/13 05:33:18;;;;;;;0.50;0.40;;;13.40;99.90;;;;;;5023981;28;20199;-81
2021/06/13 05:35:46;;;;;;;0.50;0.40;;;13.50;99.90;;;;;;5023607;28;20226;-80
2021/06/13 05:38:13;;;;;;;0.50;0.40;;;13.70;99.90;;;;;;5022623;28;20214;-80
2021/06/13 05:40:40;;;;;;;0.50;0.40;;;13.80;99.90;;;;;;5023107;28;20221;-80
2021/06/13 05:43:10;;;;;;;0.50;0.40;;;13.90;99.90;;;;;;5023887;28;20203;-81
2021/06/13 05:45:39;;;;;;;0.50;0.40;;;13.90;99.90;;;;;;5026010;28;20474;-82
2021/06/13 05:48:06;;;;;;;0.50;0.40;;;14.00;99.90;;;;;;5022573;28;20188;-79
2021/06/13 05:50:34;;;;;;;0.50;0.40;;;14.20;99.90;;;;;;5023247;28;20200;-81
2021/06/13 05:53:02;;;;;;;0.50;0.40;;;14.30;99.90;;;;;;5022929;28;20211;-81
2021/06/13 05:55:29;;;;;;;0.50;0.40;;;14.50;99.90;;;;;;5022785;28;20216;-80
2021/06/13 05:57:56;;;;;;;0.50;0.40;;;14.60;99.90;;;;;;5024162;28;20569;-80
2021/06/13 06:00:25;;;;;;;0.50;0.40;;;14.70;99.90;;;;;;5026519;28;20438;-79
2021/06/13 06:02:52;;;;;;;0.50;0.40;;;14.80;99.90;;;;;;5026777;28;20490;-80
2021/06/13 06:05:20;;;;;;;0.50;0.50;;;14.90;99.90;;;;;;5027170;28;20454;-81
2021/06/13 06:07:47;;;;;;;0.50;0.40;;;15.20;99.90;;;;;;5026934;28;20450;-80
2021/06/13 06:10:15;;;;;;;0.50;0.40;;;15.40;99.90;;;;;;5026915;28;20458;-81
2021/06/13 06:12:43;;;;;;;0.50;0.33;;;15.60;99.90;;;;;;5027076;28;20440;-77
2021/06/13 06:15:14;;;;;;;2.83;1.80;;;15.80;99.90;;;;;;5030115;28;20463;-82
2021/06/13 06:17:42;;;;;;;0.50;0.50;;;16.00;99.90;;;;;;5025755;28;20443;-80
2021/06/13 06:20:11;;;;;;;0.50;0.40;;;16.20;99.90;;;;;;5026360;28;20478;-80
2021/06/13 06:22:38;;;;;;;0.50;0.37;;;16.50;99.90;;;;;;5027658;28;20446;-80
2021/06/13 06:25:07;;;;;;;0.50;0.40;;;16.70;99.90;;;;;;5026428;28;20466;-81
2021/06/13 06:27:34;;;;;;;0.50;0.30;;;16.80;99.90;;;;;;5025828;28;20450;-80
2021/06/13 06:30:01;;;;;;;0.50;0.30;;;17.00;99.90;;;;;;5025948;28;20435;-78
2021/06/13 06:32:27;;;;;;;0.50;0.40;;;16.90;99.90;;;;;;5025416;28;20446;-80
2021/06/13 06:34:55;;;;;;;0.50;0.40;;;17.10;99.90;;;;;;5025836;28;20817;-81
2021/06/13 06:37:22;;;;;;;0.93;0.93;;;17.60;99.90;;;;;;5026448;28;20454;-80
2021/06/13 06:39:49;;;;;;;0.50;0.40;;;17.90;99.90;;;;;;5026284;28;20490;-79
2021/06/13 06:42:16;;;;;;;0.50;0.30;;;17.90;99.90;;;;;;5025349;28;20801;-81
2021/06/13 06:44:42;;;;;;;0.50;0.40;;;17.90;99.90;;;;;;5028441;28;20474;-80
2021/06/13 06:47:09;;;;;;;0.50;0.30;;;18.00;99.90;;;;;;5024438;28;20893;-81
2021/06/13 06:49:36;;;;;;;0.50;0.30;;;18.10;99.90;;;;;;5023276;28;20444;-79
2021/06/13 06:52:06;;;;;;;0.50;0.30;;;18.40;99.90;;;;;;5021820;28;20439;-80
2021/06/13 06:54:32;;;;;;;0.50;0.30;;;19.00;99.90;;;;;;5020769;28;20485;-80
2021/06/13 06:56:59;;;;;;;0.50;0.40;;;19.70;99.90;;;;;;5021463;28;20450;-81
2021/06/13 06:59:26;;;;;;;0.50;0.30;;;20.60;99.90;;;;;;5020451;28;20485;-77
2021/06/13 07:01:53;;;;;;;0.50;0.30;;;21.40;98.00;;;;;;5019611;28;20439;-77
2021/06/13 07:04:19;;;;;;;0.50;0.30;;;21.60;93.30;;;;;;5019651;28;20553;-80
2021/06/13 07:06:46;;;;;;;0.50;0.30;;;21.50;91.40;;;;;;5021526;28;20447;-79
2021/06/13 07:09:14;;;;;;;0.50;0.40;;;21.50;94.70;;;;;;5019167;28;20447;-76
2021/06/13 07:11:42;;;;;;;0.50;0.30;;;21.60;91.90;;;;;;5017669;28;20479;-75
2021/06/13 07:14:08;;;;;;;0.50;0.30;;;21.90;87.90;;;;;;5019761;28;20883;-77
2021/06/13 07:16:35;;;;;;;7.30;2.60;;;22.60;90.80;;;;;;5018380;28;20438;-76
2021/06/13 07:19:02;;;;;;;0.50;0.40;;;23.00;88.20;;;;;;5020508;28;20479;-79
2021/06/13 07:21:28;;;;;;;0.50;0.30;;;23.20;81.00;;;;;;5021968;28;20465;-81
2021/06/13 07:23:55;;;;;;;0.50;0.30;;;22.80;80.60;;;;;;5021999;28;20459;-79
2021/06/13 07:26:23;;;;;;;0.50;0.30;;;22.30;82.50;;;;;;5021792;28;20446;-78
2021/06/13 07:28:50;;;;;;;0.50;0.30;;;22.10;82.90;;;;;;5021253;28;20893;-80
2021/06/13 07:31:17;;;;;;;0.50;0.40;;;21.80;85.90;;;;;;5021456;28;20439;-81
2021/06/13 07:33:44;;;;;;;0.50;0.30;;;21.60;87.20;;;;;;5021648;28;20449;-79
2021/06/13 07:36:11;;;;;;;0.50;0.30;;;21.40;87.20;;;;;;5021732;28;20453;-80
2021/06/13 07:38:38;;;;;;;0.50;0.30;;;21.10;87.00;;;;;;5019857;28;20475;-78
2021/06/13 07:41:04;;;;;;;0.50;0.40;;;20.90;89.40;;;;;;5021455;28;20789;-79
2021/06/13 07:43:32;;;;;;;0.67;0.67;;;20.90;90.80;;;;;;5020911;28;20442;-78
2021/06/13 07:45:59;;;;;;;0.50;0.30;;;20.90;88.70;;;;;;5046997;22;20873;-77
2021/06/13 07:48:26;;;;;;;0.50;0.30;;;20.50;88.60;;;;;;5051659;28;20965;-78
2021/06/13 07:50:53;;;;;;;0.50;0.40;;;20.30;89.80;;;;;;5053075;28;20803;-78
2021/06/13 07:53:19;;;;;;;0.50;0.40;;;20.20;91.80;;;;;;5052740;28;20440;-78
2021/06/13 07:55:46;;;;;;;0.50;0.30;;;20.20;91.80;;;;;;5061263;28;20850;-78
2021/06/13 07:58:13;;;;;;;0.50;0.30;;;20.20;91.50;;;;;;5072503;28;20458;-77
2021/06/13 08:00:41;;;;;;;0.50;0.40;;;20.10;91.30;;;;;;5072217;28;20866;-77
2021/06/13 08:03:08;;;;;;;0.50;0.30;;;20.00;86.70;;;;;;5072996;28;21027;-77
2021/06/13 08:05:35;;;;;;;0.50;0.40;;;19.90;90.10;;;;;;5072798;28;20456;-77
2021/06/13 08:08:06;;;;;;;0.50;0.40;;;19.80;90.00;;;;;;5072451;28;20443;-77
2021/06/13 08:10:33;;;;;;;0.50;0.33;;;19.90;91.10;;;;;;5072707;28;20837;-77
2021/06/13 08:13:00;;;;;;;0.50;0.30;;;19.90;93.80;;;;;;5072344;28;20443;-76
2021/06/13 08:15:27;;;;;;;0.50;0.40;;;20.00;93.20;;;;;;5071879;28;20521;-77
2021/06/13 08:17:56;;;;;;;0.50;0.33;;;20.20;94.80;;;;;;5071966;28;20444;-76
2021/06/13 08:20:23;;;;;;;0.50;0.30;;;20.30;90.50;;;;;;5071647;28;20563;-77
2021/06/13 08:22:50;;;;;;;0.60;0.40;;;20.40;87.60;;;;;;5071846;28;20491;-76
2021/06/13 08:25:17;;;;;;;0.50;0.30;;;20.50;90.00;;;;;;5072145;28;20467;-77
2021/06/13 08:27:44;;;;;;;0.50;0.30;;;20.50;90.00;;;;;;5072546;28;21099;-77
2021/06/13 08:30:15;;;;;;;0.50;0.30;;;20.80;89.20;;;;;;5072193;28;20436;-78
2021/06/13 08:32:43;;;;;;;0.50;0.30;;;21.80;90.10;;;;;;5071979;28;20440;-77
2021/06/13 08:35:12;;;;;;;0.50;0.30;;;23.50;90.00;;;;;;5072024;28;20501;-78
2021/06/13 08:37:39;;;;;;;0.50;0.30;;;24.00;79.70;;;;;;5071964;28;20447;-78
2021/06/13 08:40:08;;;;;;;0.50;0.30;;;23.70;75.50;;;;;;5071687;28;20472;-77
2021/06/13 08:42:35;;;;;;;0.50;0.30;;;23.10;77.10;;;;;;5071558;28;20439;-77
2021/06/13 08:45:03;;;;;;;0.50;0.50;;;23.60;82.40;;;;;;5071826;28;20443;-77
2021/06/13 08:47:30;;;;;;;0.50;0.30;;;24.30;74.80;;;;;;5063210;28;20438;-78
2021/06/13 08:49:57;;;;;;;0.50;0.50;;;24.80;73.20;;;;;;5071630;28;20432;-78
2021/06/13 08:52:25;;;;;;;0.50;0.40;;;24.70;73.00;;;;;;5071606;28;20439;-77
2021/06/13 08:54:52;;;;;;;3.17;1.80;;;24.40;72.90;;;;;;5070668;28;20951;-77
2021/06/13 08:57:19;;;;;;;0.80;0.80;;;24.00;73.70;;;;;;5071834;28;20501;-77
2021/06/13 08:59:47;;;;;;;0.50;0.30;;;22.10;74.10;;;;;;5071812;28;20498;-78
2021/06/13 09:02:15;;;;;;;0.50;0.30;;;21.60;75.70;;;;;;5071090;28;20451;-77
2021/06/13 09:04:41;;;;;;;0.50;0.40;;;21.60;78.40;;;;;;5071357;28;20452;-76
2021/06/13 09:07:15;;;;;;;0.50;0.30;;;21.60;78.50;;;;;;5071015;28;20456;-77
2021/06/13 09:09:43;;;;;;;0.50;0.30;;;21.60;84.60;;;;;;5072087;28;20419;-77
2021/06/13 09:12:11;;;;;;;0.50;0.30;;;21.40;79.30;;;;;;5071369;28;20968;-78
2021/06/13 09:14:42;;;;;;;0.50;0.30;;;21.90;81.80;;;;;;5071337;28;20868;-78
2021/06/13 09:17:13;;;;;;;0.50;0.30;;;23.10;80.50;;;;;;5070989;28;20467;-76
2021/06/13 09:20:02;;;;;;;6.63;6.23;;;22.60;74.00;;;;;;5071257;28;21053;-77
2021/06/13 09:22:29;;;;;;;0.50;0.40;;;22.40;77.20;;;;;;5071335;28;20484;-77
2021/06/13 09:25:07;;;;;;;0.50;0.47;;;22.10;77.60;;;;;;5071337;28;20432;-77
2021/06/13 09:27:33;;;;;;;0.50;0.30;;;21.90;77.00;;;;;;5071145;28;20427;-77
2021/06/13 09:30:00;;;;;;;0.60;0.57;;;22.00;75.40;;;;;;5071273;28;20440;-78
2021/06/13 09:32:27;;;;;;;0.50;0.30;;;22.40;74.40;;;;;;5072860;28;20441;-79
2021/06/13 09:35:21;;;;;;;0.50;0.40;;;22.50;74.20;;;;;;5075736;28;20981;-77
2021/06/13 09:38:12;;;;;;;0.53;0.53;;;22.50;75.10;;;;;;5075472;28;20478;-77
2021/06/13 09:40:42;;;;;;;0.50;0.30;;;22.30;75.90;;;;;;5075332;28;20521;-77
2021/06/13 09:43:19;;;;;;;0.50;0.30;;;22.00;78.10;;;;;;5075517;28;20428;-77
2021/06/13 09:45:52;;;;;;;0.50;0.40;;;21.90;81.30;;;;;;5074705;28;20463;-78
2021/06/13 09:48:19;;;;;;;0.50;0.30;;;21.90;78.40;;;;;;5074938;28;20444;-77
2021/06/13 09:50:48;;;;;;;0.50;0.30;;;21.80;78.00;;;;;;5074950;28;20936;-78
2021/06/13 09:53:22;;;;;;;0.50;0.30;;;21.60;81.00;;;;;;5075240;28;20435;-77
2021/06/13 09:56:05;;;;;;;0.50;0.30;;;21.60;82.90;;;;;;5074685;28;20960;-75
2021/06/13 09:58:33;;;;;;;0.50;0.30;;;21.70;80.60;;;;;;5074853;28;20951;-75
2021/06/13 10:01:06;;;;;;;0.50;0.30;;;22.10;81.30;;;;;;5074559;28;20471;-77
2021/06/13 10:03:35;;;;;;;0.50;0.30;;;23.20;82.90;;;;;;5075286;28;20786;-77
2021/06/13 10:06:02;;;;;;;2.30;0.60;;;24.00;75.50;;;;;;5074853;28;20472;-77
2021/06/13 10:08:29;;;;;;;0.50;0.37;;;24.10;71.50;;;;;;5074450;28;20447;-77
2021/06/13 10:10:59;;;;;;;0.50;0.40;;;23.80;74.40;;;;;;5074652;28;20436;-73
2021/06/13 10:13:44;;;;;;;0.50;0.30;;;24.20;69.50;;;;;;5075029;28;20475;-78
2021/06/13 10:16:21;;;;;;;0.50;0.30;;;24.50;69.50;;;;;;5074344;28;20466;-77
2021/06/13 10:18:52;;;;;;;0.50;0.50;;;24.80;69.50;;;;;;5074112;28;20439;-78
2021/06/13 10:21:19;;;;;;;0.50;0.40;;;25.00;65.10;;;;;;5074649;28;20498;-76
2021/06/13 10:23:46;;;;;;;0.53;0.47;;;24.70;66.10;;;;;;5074391;28;20443;-77
2021/06/13 10:26:14;;;;;;;0.50;0.30;;;22.50;68.30;;;;;;5074640;28;20462;-77
2021/06/13 10:28:41;;;;;;;0.50;0.30;;;22.40;73.30;;;;;;5074301;28;20493;-77
2021/06/13 10:31:08;;;;;;;0.50;0.30;;;22.60;73.70;;;;;;5074130;28;20836;-76
2021/06/13 10:33:35;;;;;;;0.50;0.30;;;22.60;74.50;;;;;;5073947;28;20451;-77
2021/06/13 10:36:02;;;;;;;1.13;1.03;;;22.90;73.60;;;;;;5074841;28;20463;-77
2021/06/13 10:38:29;;;;;;;0.60;0.60;;;23.20;73.90;;;;;;5073934;28;20451;-77
2021/06/13 10:40:56;;;;;;;0.50;0.30;;;23.60;69.40;;;;;;5074323;28;20475;-74
2021/06/13 10:43:27;;;;;;;0.50;0.30;;;23.70;68.20;;;;;;5073429;28;20472;-78
2021/06/13 10:45:54;;;;;;;0.50;0.43;;;23.80;69.90;;;;;;5073448;28;20474;-78
2021/06/13 10:48:21;;;;;;;0.50;0.40;;;23.10;70.00;;;;;;5073757;28;20433;-77
2021/06/13 10:50:47;;;;;;;0.50;0.30;;;23.20;72.00;;;;;;5074246;28;20920;-79
2021/06/13 10:53:15;;;;;;;0.50;0.40;;;23.10;71.70;;;;;;5073813;28;20443;-77
2021/06/13 10:55:50;;;;;;;0.50;0.30;;;23.50;72.10;;;;;;5073965;28;20980;-77
2021/06/13 10:58:48;;;;;;;0.50;0.30;;;23.60;70.80;;;;;;5073159;28;20850;-77
2021/06/13 11:01:26;;;;;;;0.50;0.47;;;23.40;72.30;;;;;;5073374;28;20472;-77
2021/06/13 11:04:00;;;;;;;0.50;0.30;;;23.40;73.60;;;;;;5073983;28;20445;-78
2021/06/13 11:06:46;;;;;;;6.63;2.83;;;23.00;71.30;;;;;;5073402;28;20476;-77
2021/06/13 11:09:15;;;;;;;0.80;0.60;;;22.50;73.50;;;;;;5073546;28;20426;-77
2021/06/13 11:11:44;;;;;;;0.50;0.30;;;22.70;74.30;;;;;;5073295;28;20429;-77
2021/06/13 11:14:25;;;;;;;0.50;0.40;;;22.80;79.20;;;;;;5073936;28;20833;-76
2021/06/13 11:16:52;;;;;;;0.50;0.30;;;22.70;73.30;;;;;;5073386;28;20460;-76
2021/06/13 11:19:29;;;;;;;1.00;0.50;;;22.70;74.10;;;;;;5073493;28;20444;-78
2021/06/13 11:22:32;;;;;;;0.90;0.67;;;22.80;76.30;;;;;;5073958;28;20447;-78
2021/06/13 11:25:00;;;;;;;0.60;0.60;;;22.90;79.90;;;;;;5073381;28;20443;-77
2021/06/13 11:27:30;;;;;;;0.50;0.30;;;22.90;75.60;;;;;;5073435;28;20498;-78
2021/06/13 11:30:00;;;;;;;0.50;0.40;;;22.70;75.70;;;;;;5073165;28;20704;-77
2021/06/13 11:32:53;;;;;;;0.50;0.30;;;22.80;79.70;;;;;;5073395;28;20842;-77
2021/06/13 11:35:27;;;;;;;0.50;0.30;;;22.90;76.20;;;;;;5073363;28;20487;-78
2021/06/13 11:38:23;;;;;;;0.50;0.30;;;23.20;79.60;;;;;;5072731;28;20432;-76
2021/06/13 11:40:54;;;;;;;0.70;0.60;;;23.70;78.80;;;;;;5073214;28;20480;-78
2021/06/13 11:43:22;;;;;;;0.50;0.30;;;24.00;75.10;;;;;;5073292;28;20446;-77
2021/06/13 11:45:54;;;;;;;0.50;0.30;;;23.90;79.50;;;;;;5072137;28;20481;-75
2021/06/13 11:48:22;;;;;;;0.50;0.30;;;24.10;74.10;;;;;;5073295;28;20432;-78
2021/06/13 11:51:06;;;;;;;0.50;0.30;;;24.40;74.90;;;;;;5072993;28;20432;-77
2021/06/13 11:53:56;;;;;;;0.50;0.30;;;24.70;71.30;;;;;;5072831;28;20440;-78
2021/06/13 11:56:44;;;;;;;2.10;2.00;;;25.00;75.70;;;;;;5072282;28;20460;-76
2021/06/13 11:59:19;;;;;;;0.50;0.30;;;26.00;76.20;;;;;;5073268;28;20420;-79
2021/06/13 12:01:56;;;;;;;0.50;0.30;;;27.10;70.90;;;;;;5072141;28;20475;-78
2021/06/13 12:04:24;;;;;;;0.50;0.30;;;28.00;65.40;;;;;;5072749;28;20448;-78
2021/06/13 12:06:51;;;;;;;0.50;0.30;;;28.60;62.00;;;;;;5072028;28;20511;-75
2021/06/13 12:09:20;;;;;;;10.20;0.77;;;28.30;60.60;;;;;;5072414;28;20455;-77
2021/06/13 12:11:50;;;;;;;0.50;0.30;;;27.70;60.00;;;;;;5072531;28;20432;-78
2021/06/13 12:14:18;;;;;;;0.50;0.30;;;27.40;63.00;;;;;;5072884;28;20439;-78
2021/06/13 12:16:46;;;;;;;0.97;0.97;;;27.70;64.90;;;;;;5071692;28;20539;-76
2021/06/13 12:19:14;;;;;;;0.50;0.30;;;28.10;61.80;;;;;;5072707;28;20523;-77
2021/06/13 12:21:41;;;;;;;0.50;0.30;;;29.50;63.90;;;;;;5072201;28;20479;-77
2021/06/13 12:24:20;;;;;;;0.50;0.30;;;30.50;59.90;;;;;;5072050;28;20444;-77
2021/06/13 12:29:35;;;;;;;0.47;0.30;;;32.40;58.20;;;;;;5072141;28;20420;-78
2021/06/13 12:32:13;;;;;;;0.40;0.40;;;33.50;54.50;;;;;;5072084;28;20421;-78
2021/06/13 12:34:40;;;;;;;0.40;0.30;;;34.20;51.10;;;;;;5072559;28;20435;-77
2021/06/13 12:37:07;;;;;;;0.40;0.30;;;34.80;50.70;;;;;;5071477;28;20456;-78
2021/06/13 12:39:36;;;;;;;0.40;0.30;;;35.40;47.90;;;;;;5071979;28;20436;-77
2021/06/13 12:42:09;;;;;;;0.87;0.87;;;34.10;48.60;;;;;;5071891;28;20549;-79
2021/06/13 12:44:37;;;;;;;0.40;0.30;;;32.40;49.60;;;;;;5071627;28;20444;-78
2021/06/13 12:47:06;;;;;;;0.50;0.40;;;31.70;51.20;;;;;;5070555;28;20472;-78
2021/06/13 12:49:43;;;;;;;0.50;0.30;;;31.90;50.20;;;;;;5071473;28;20518;-77
2021/06/13 12:52:14;;;;;;;0.40;0.30;;;32.30;51.50;;;;;;5072043;28;20428;-79
2021/06/13 12:54:41;;;;;;;0.40;0.30;;;33.40;50.80;;;;;;5071560;28;20432;-78
2021/06/13 12:57:09;;;;;;;0.40;0.30;;;33.70;48.60;;;;;;5071250;28;20558;-77
2021/06/13 12:59:36;;;;;;;0.40;0.30;;;34.20;50.00;;;;;;5072016;28;20440;-79
2021/06/13 13:02:07;;;;;;;0.40;0.30;;;34.90;48.70;;;;;;5071469;28;20472;-78